Burke Lakefront Airport
KBKL : now visible

Airfield :











YOU CAN JOIN US ON...

 
LOGIN :

Register | Disclaimer

   EN    FR    IT 

 









Legend :    VFR   Marginal VFR   IFR   Intensive IFR   Very Intensive IFR
Visi :
Ceiling :
>= 8 km
>= 3000ft
5 to 8 km
1000 to 3000 ft
1500m to 5 km
500 to 1000 ft
800 to 1500m
200 to 500 ft
< 800m
< 200 ft
Symbols :   Thunderstorms  Fog  Heavy snow  Heavy precipitations  Wind > 20 kt






- Airport Elevation : 583 ft
- IATA code : BKL


KBKL - Burke Lakefront

CURRENT METAR :
  • 041653Z 31012KT 10SM SCT014 SCT022 SCT095 23/18 A2989 RMK AO2 SLP120 T02280183 $

EXPIRED METARs :
  • 041553Z 33009KT 10SM BKN013 BKN020 23/19 A2988 RMK AO2 RAE03 SLP117 P0000 T02330189 $
  • 041536Z 27007KT 10SM BKN014 OVC019 22/18 A2989 RMK AO2 RAE03 P0000 T02170183 $
  • 041520Z 27004KT 10SM BKN016 BKN024 OVC042 22/18 A2989 RMK AO2 RAE03 P0000 T02170178 $
  • 041500Z 00000KT 10SM -RA FEW025 BKN043 OVC055 22/18 A2988 RMK AO2 P0000 T02220178 $
  • 041431Z 26005KT 10SM BKN022 BKN029 BKN110 22/17 A2989 RMK AO2 T02220172 $

TAF N/A
KZOB FIR / North America



MET'MAP, your aeronautical weather chart ! - Copyright ORBIFLY December 2007 - Disclaimer

ORBIFLY MET'MAP TEAM :

Programming & Development : Alexandra Zaïnal
Concept & original design : Baudouin d'Aumeries
Assistance for programming : Marc-Olivier Méhu
Technical & hardware support : Manuel Goepfert

Contact : metmap@orbifly.com




SOURCES & CREDITS :

   NOAA       Earth
Advisory